createdAt,value
2022-11-05T00:00:19.581Z,17.52
2022-11-05T00:03:04.789Z,18.77
2022-11-05T00:05:50.586Z,16.40
2022-11-05T00:08:36.003Z,20.90
2022-11-05T00:11:02.742Z,15.30
2022-11-05T00:13:47.951Z,17.48
2022-11-05T00:16:46.930Z,22.27
2022-11-05T00:19:15.026Z,20.40
2022-11-05T00:22:00.083Z,17.65
2022-11-05T00:24:45.586Z,22.38
2022-11-05T00:27:12.208Z,15.45
2022-11-05T00:29:38.780Z,26.02
2022-11-05T00:32:05.476Z,23.75
2022-11-05T00:34:32.110Z,24.73
2022-11-05T00:36:58.760Z,23.60
2022-11-05T00:39:25.390Z,22.92
2022-11-05T00:42:12.003Z,24.25
2022-11-05T00:44:57.171Z,18.08
2022-11-05T00:47:42.783Z,23.08
2022-11-05T00:50:10.872Z,17.42
2022-11-05T00:52:56.323Z,20.40
2022-11-05T00:55:24.526Z,21.40
2022-11-05T00:57:51.574Z,24.23
2022-11-05T01:00:18.610Z,22.92
2022-11-05T01:02:45.696Z,20.02
2022-11-05T01:05:13.597Z,25.33
2022-11-05T01:07:40.419Z,24.00
2022-11-05T01:10:07.332Z,21.42
2022-11-05T01:12:34.052Z,22.90
2022-11-05T01:15:00.832Z,27.52
2022-11-05T01:17:27.553Z,26.65
2022-11-05T01:19:54.065Z,22.95
2022-11-05T01:22:20.546Z,26.52
2022-11-05T01:24:46.985Z,24.95
2022-11-05T01:27:13.558Z,25.38
2022-11-05T01:29:40.205Z,23.83
2022-11-05T01:32:06.742Z,23.33
2022-11-05T01:34:33.308Z,13.80
2022-11-05T01:36:59.886Z,25.33
2022-11-05T01:39:26.410Z,26.63
2022-11-05T01:41:52.945Z,22.95
2022-11-05T01:44:48.033Z,23.05
2022-11-05T01:47:29.728Z,19.23
2022-11-05T01:50:00.419Z,18.02
2022-11-05T01:52:29.557Z,24.30
2022-11-05T01:54:56.716Z,12.77
2022-11-05T01:57:23.643Z,12.75
2022-11-05T01:59:55.421Z,13.88
2022-11-05T02:02:25.262Z,15.75
2022-11-05T02:04:57.608Z,13.55
2022-11-05T02:07:26.824Z,14.75
2022-11-05T02:10:09.280Z,17.42
2022-11-05T02:12:38.678Z,15.27
2022-11-05T02:15:06.853Z,18.73
2022-11-05T02:17:54.937Z,18.15
2022-11-05T02:20:32.546Z,16.50
2022-11-05T02:23:17.274Z,20.58
2022-11-05T02:25:55.901Z,14.93
2022-11-05T02:28:34.597Z,16.02
2022-11-05T02:31:10.194Z,13.25
2022-11-05T02:34:02.355Z,19.42
2022-11-05T02:36:43.326Z,19.23
2022-11-05T02:39:25.478Z,16.52
2022-11-05T02:42:02.039Z,17.27
2022-11-05T02:44:56.751Z,15.07
2022-11-05T02:47:45.592Z,18.42
2022-11-05T02:50:24.297Z,9.15
2022-11-05T02:53:02.188Z,16.23
2022-11-05T02:55:28.631Z,17.20
2022-11-05T02:57:55.326Z,14.20
2022-11-05T03:00:40.142Z,13.90
2022-11-05T03:03:30.771Z,13.93
2022-11-05T03:06:23.494Z,15.75
2022-11-05T03:09:20.598Z,17.27
2022-11-05T03:12:13.036Z,15.90
2022-11-05T03:15:11.390Z,12.15
2022-11-05T03:18:08.446Z,17.08
2022-11-05T03:20:47.394Z,12.40
2022-11-05T03:23:16.884Z,13.10
2022-11-05T03:25:49.399Z,15.10
2022-11-05T03:28:21.146Z,15.25
2022-11-05T03:30:50.075Z,16.30
2022-11-05T03:33:22.203Z,16.27
2022-11-05T03:35:54.010Z,13.95
2022-11-05T03:38:27.027Z,22.63
2022-11-05T03:40:57.077Z,22.30
2022-11-05T03:43:30.446Z,22.52
2022-11-05T03:46:09.683Z,24.77
2022-11-05T03:48:41.655Z,19.80
2022-11-05T03:51:18.837Z,27.95
2022-11-05T03:53:51.942Z,23.92
2022-11-05T03:56:25.024Z,19.70
2022-11-05T03:58:58.723Z,30.77
2022-11-05T04:01:26.552Z,29.20
2022-11-05T04:03:53.398Z,21.95
2022-11-05T04:06:38.565Z,29.48
2022-11-05T04:09:23.303Z,26.35
2022-11-05T04:12:08.127Z,29.73
2022-11-05T04:14:34.834Z,36.33
2022-11-05T04:17:07.335Z,32.97
2022-11-05T04:20:00.112Z,26.40
2022-11-05T04:22:47.219Z,24.42
2022-11-05T04:25:14.837Z,28.90
2022-11-05T04:27:41.456Z,29.65
2022-11-05T04:30:20.851Z,25.73
2022-11-05T04:33:06.892Z,24.33
2022-11-05T04:35:36.549Z,24.92
2022-11-05T04:40:30.789Z,31.13
2022-11-05T04:42:58.423Z,23.20
2022-11-05T04:45:27.089Z,27.70
2022-11-05T04:47:53.699Z,29.50
2022-11-05T04:50:22.366Z,20.92
2022-11-05T04:52:49.019Z,34.83
2022-11-05T04:55:15.567Z,26.90
2022-11-05T04:57:42.069Z,32.20
2022-11-05T05:00:09.775Z,30.20
2022-11-05T05:02:36.746Z,27.73
2022-11-05T05:05:04.018Z,29.70
2022-11-05T05:07:30.722Z,27.50
2022-11-05T05:09:57.252Z,24.42
2022-11-05T05:12:23.822Z,30.27
2022-11-05T05:14:50.386Z,30.25
2022-11-05T05:17:17.006Z,32.30
2022-11-05T05:20:02.207Z,27.02
2022-11-05T05:22:28.872Z,30.35
2022-11-05T05:24:56.680Z,30.33
2022-11-05T05:27:24.458Z,24.50
2022-11-05T05:29:50.999Z,21.90
2022-11-05T05:32:17.465Z,27.92
2022-11-05T05:34:44.395Z,30.20
2022-11-05T05:37:10.911Z,26.75
2022-11-05T05:39:37.456Z,28.83
2022-11-05T05:42:04.159Z,29.25
2022-11-05T05:44:30.720Z,28.52
2022-11-05T05:46:57.310Z,27.60
2022-11-05T05:49:23.940Z,27.75
2022-11-05T05:51:50.451Z,25.08
2022-11-05T05:54:17.276Z,25.38
2022-11-05T05:56:44.468Z,22.45
2022-11-05T05:59:11.842Z,28.42
2022-11-05T06:01:38.530Z,27.25
2022-11-05T06:04:05.569Z,31.42
2022-11-05T06:06:32.159Z,27.15
2022-11-05T06:08:58.919Z,28.17
2022-11-05T06:11:25.791Z,22.85
2022-11-05T06:13:52.359Z,21.17
2022-11-05T06:16:21.418Z,26.20
2022-11-05T06:18:47.953Z,24.65
2022-11-05T06:21:16.804Z,26.80
2022-11-05T06:23:45.250Z,15.95
2022-11-05T06:26:17.413Z,23.15
2022-11-05T06:28:44.424Z,26.83
2022-11-05T06:31:12.469Z,29.15
2022-11-05T06:33:40.095Z,28.63
2022-11-05T06:36:08.701Z,24.83
2022-11-05T06:38:36.832Z,27.08
2022-11-05T06:41:09.009Z,25.10
2022-11-05T06:43:37.288Z,22.88
2022-11-05T06:46:04.459Z,24.48
2022-11-05T06:48:31.082Z,23.25
2022-11-05T06:50:57.900Z,26.75
2022-11-05T06:53:24.644Z,23.35
2022-11-05T06:55:51.187Z,22.70
2022-11-05T06:58:17.685Z,23.67
2022-11-05T07:00:45.050Z,23.98
2022-11-05T07:03:12.766Z,25.95
2022-11-05T07:05:43.999Z,25.38
2022-11-05T07:08:10.517Z,27.23
2022-11-05T07:10:37.106Z,24.83
2022-11-05T07:13:08.079Z,19.88
2022-11-05T07:15:35.618Z,25.48
2022-11-05T07:18:02.241Z,23.65
2022-11-05T07:20:33.455Z,25.75
2022-11-05T07:23:10.443Z,21.85
2022-11-05T07:25:37.594Z,25.10
2022-11-05T07:28:04.873Z,19.92
2022-11-05T07:30:32.890Z,22.58
2022-11-05T07:32:59.650Z,25.30
2022-11-05T07:35:26.472Z,24.65
2022-11-05T07:37:54.545Z,20.75
2022-11-05T07:40:22.817Z,26.95
2022-11-05T07:42:51.617Z,23.75
2022-11-05T07:45:18.575Z,18.73
2022-11-05T07:47:49.704Z,22.27
2022-11-05T07:50:20.896Z,22.23
2022-11-05T07:52:48.739Z,20.50
2022-11-05T07:55:16.114Z,26.55
2022-11-05T07:57:50.884Z,20.27
2022-11-05T08:00:20.723Z,21.55
2022-11-05T08:03:08.165Z,20.70
2022-11-05T08:05:40.530Z,19.42
2022-11-05T08:08:09.181Z,22.92
2022-11-05T08:10:36.911Z,19.58
2022-11-05T08:13:04.304Z,20.77
2022-11-05T08:15:31.389Z,18.90
2022-11-05T08:18:03.264Z,17.13
2022-11-05T08:20:30.892Z,23.38
2022-11-05T08:22:57.851Z,18.90
2022-11-05T08:25:24.895Z,20.67
2022-11-05T08:27:58.511Z,20.20
2022-11-05T08:30:25.567Z,21.15
2022-11-05T08:32:57.472Z,19.20
2022-11-05T08:35:24.201Z,22.27
2022-11-05T08:37:50.690Z,17.83
2022-11-05T08:40:17.310Z,19.30
2022-11-05T08:42:43.891Z,17.67
2022-11-05T08:45:10.504Z,18.02
2022-11-05T08:47:36.986Z,15.55
2022-11-05T08:50:04.736Z,8.23
2022-11-05T08:52:31.198Z,18.45
2022-11-05T08:54:57.710Z,14.70
2022-11-05T08:57:24.189Z,13.98
2022-11-05T08:59:50.707Z,13.20
2022-11-05T09:02:17.363Z,16.75
2022-11-05T09:04:44.704Z,17.35
2022-11-05T09:07:11.294Z,17.35
2022-11-05T09:09:37.802Z,15.77
2022-11-05T09:12:13.116Z,23.10
2022-11-05T09:14:39.818Z,23.45
2022-11-05T09:20:53.255Z,16.63
2022-11-05T09:23:20.156Z,17.33
2022-11-05T09:25:46.911Z,19.02
2022-11-05T09:28:20.389Z,17.63
2022-11-05T09:30:51.973Z,15.30
2022-11-05T09:33:21.924Z,18.08
2022-11-05T09:35:48.811Z,22.13
2022-11-05T09:38:15.464Z,14.85
2022-11-05T09:40:58.282Z,20.83
2022-11-05T09:43:35.404Z,17.52
2022-11-05T09:46:20.228Z,17.13
2022-11-05T09:48:52.289Z,16.30
2022-11-05T09:51:23.946Z,16.33
2022-11-05T09:53:51.687Z,14.07
2022-11-05T09:56:28.545Z,16.98
2022-11-05T18:38:33.699Z,15.13
2022-11-05T18:41:06.214Z,18.85
2022-11-05T18:43:33.084Z,14.52
2022-11-05T18:45:59.676Z,17.98
2022-11-05T18:48:26.124Z,16.05
2022-11-05T18:50:55.437Z,15.27
2022-11-05T18:53:24.228Z,18.70
2022-11-05T18:55:50.893Z,18.17
2022-11-05T18:58:17.325Z,16.95
2022-11-05T19:00:43.941Z,15.48
2022-11-05T19:03:10.709Z,15.13
2022-11-05T19:05:37.242Z,19.35
2022-11-05T19:08:03.862Z,17.77
2022-11-05T19:10:30.416Z,19.35
2022-11-05T19:12:57.039Z,16.63
2022-11-05T19:15:23.678Z,23.10
2022-11-05T19:17:50.353Z,16.98
2022-11-05T19:20:17.032Z,19.88
2022-11-05T19:22:43.536Z,18.17
2022-11-05T19:25:10.166Z,19.25
2022-11-05T19:27:37.628Z,18.52
2022-11-05T19:30:05.928Z,21.73
2022-11-05T19:32:32.533Z,21.70
2022-11-05T19:34:59.130Z,20.33
2022-11-05T19:37:25.815Z,21.38
2022-11-05T19:39:52.444Z,23.75
2022-11-05T19:42:19.035Z,22.23
2022-11-05T19:44:45.671Z,22.08
2022-11-05T19:47:12.263Z,22.17
2022-11-05T19:49:38.999Z,21.88
2022-11-05T19:52:06.690Z,25.23
2022-11-05T19:54:35.581Z,22.05
2022-11-05T19:57:02.181Z,23.15
2022-11-05T19:59:28.703Z,25.75
2022-11-05T20:01:55.443Z,29.75
2022-11-05T20:04:22.123Z,25.15
2022-11-05T20:06:51.175Z,25.98
2022-11-05T20:09:22.601Z,28.45
2022-11-05T20:11:52.464Z,25.92
2022-11-05T20:14:19.131Z,23.67
2022-11-05T20:16:46.694Z,35.17
2022-11-05T20:19:17.076Z,29.60
2022-11-05T20:21:44.546Z,31.25
2022-11-05T20:24:13.303Z,27.00
2022-11-05T20:26:41.012Z,24.63
2022-11-05T20:29:07.726Z,27.13
2022-11-05T20:31:34.373Z,31.63
2022-11-05T20:34:00.980Z,28.33
2022-11-05T20:36:27.680Z,31.23
2022-11-05T20:38:56.642Z,33.53
2022-11-05T20:41:23.746Z,32.03
2022-11-05T20:43:51.041Z,25.77
2022-11-05T20:46:19.832Z,28.95
2022-11-05T20:48:46.802Z,26.27
2022-11-05T20:51:16.201Z,25.90
2022-11-05T20:56:20.347Z,32.17
2022-11-05T20:58:47.502Z,33.28
2022-11-05T21:01:16.525Z,31.70
2022-11-05T21:03:44.544Z,31.08
2022-11-05T21:06:11.740Z,25.35
2022-11-05T21:08:38.872Z,28.17
2022-11-05T21:11:06.900Z,27.70
2022-11-05T21:13:36.013Z,25.92
2022-11-05T21:16:06.215Z,34.40
2022-11-05T21:18:35.315Z,23.10
2022-11-05T21:21:14.194Z,27.25
2022-11-05T21:23:41.779Z,29.30
2022-11-05T21:26:11.006Z,29.23
2022-11-05T21:28:39.384Z,23.35
2022-11-05T21:31:07.628Z,20.05
2022-11-05T21:33:34.666Z,28.20
2022-11-05T21:36:10.060Z,27.17
2022-11-05T21:38:36.915Z,21.48
2022-11-05T21:41:05.749Z,24.85
2022-11-05T21:43:32.524Z,25.33
2022-11-05T21:46:03.900Z,29.27
2022-11-05T21:48:31.334Z,27.63
2022-11-05T21:51:16.516Z,28.70
2022-11-05T21:54:01.713Z,23.75
2022-11-05T21:56:47.013Z,29.98
2022-11-05T21:59:34.807Z,24.20
2022-11-05T22:02:02.144Z,30.65
2022-11-05T22:04:33.986Z,25.85
2022-11-05T22:07:00.830Z,28.23
2022-11-05T22:09:27.602Z,23.50
2022-11-05T22:11:54.759Z,28.33
2022-11-05T22:14:21.821Z,30.75
2022-11-05T22:16:48.746Z,25.05
2022-11-05T22:19:15.348Z,23.00
2022-11-05T22:21:42.131Z,25.42
2022-11-05T22:24:11.303Z,28.48
2022-11-05T22:26:39.137Z,27.05
2022-11-05T22:29:06.388Z,30.02
2022-11-05T22:31:36.407Z,26.48
2022-11-05T22:34:04.866Z,26.73
2022-11-05T22:36:32.670Z,26.80
2022-11-05T22:38:59.466Z,29.15
2022-11-05T22:41:26.172Z,28.15
2022-11-05T22:43:52.904Z,35.67
2022-11-05T22:46:22.452Z,24.45
2022-11-05T22:48:49.988Z,22.73
2022-11-05T22:51:22.505Z,32.20
2022-11-05T22:53:49.475Z,33.30
2022-11-05T22:56:23.919Z,35.03
2022-11-05T22:58:51.218Z,30.45
2022-11-05T23:01:19.716Z,36.50
2022-11-05T23:03:48.164Z,36.92
2022-11-05T23:06:38.854Z,33.97
2022-11-05T23:09:54.342Z,51.22
2022-11-05T23:12:29.963Z,45.50
2022-11-05T23:14:58.535Z,26.45
2022-11-05T23:17:44.427Z,41.53
2022-11-05T23:20:35.790Z,28.70
2022-11-05T23:23:21.090Z,19.90
2022-11-05T23:25:48.221Z,27.75
2022-11-05T23:28:15.095Z,20.45
2022-11-05T23:31:06.233Z,28.48
2022-11-05T23:33:34.218Z,23.90
2022-11-05T23:36:19.476Z,23.35
2022-11-05T23:38:46.664Z,21.95
2022-11-05T23:41:31.817Z,21.13
2022-11-05T23:44:17.209Z,26.52
2022-11-05T23:47:08.318Z,29.50
2022-11-05T23:49:36.271Z,18.17
2022-11-05T23:52:02.894Z,23.38
2022-11-05T23:54:31.081Z,26.55
2022-11-05T23:56:57.753Z,25.90
2022-11-05T23:59:26.607Z,18.42
